Time;durP1;ratioP1;P1;durP2;ratioP2;P2;SDS_P1;SDS_P2;PMS_P1;PMS_P2;Temp;Humidity;BMP_temperature;BMP_pressure;BME280_temperature;BME280_humidity;BME280_pressure;Samples;Min_cycle;Max_cycle;Signal;HPM_P1;HPM_P2
2022/03/31 00:00:36;;;;;;;3.38;1.00;;;3.00;99.90;;;;;;6211768;23;20465;-80
2022/03/31 00:03:04;;;;;;;3.33;0.90;;;3.00;99.90;;;;;;6211853;23;20096;-80
2022/03/31 00:05:30;;;;;;;5.28;1.10;;;3.00;99.90;;;;;;6211794;23;20012;-80
2022/03/31 00:08:01;;;;;;;4.47;0.93;;;3.00;99.90;;;;;;6212213;23;20013;-80
2022/03/31 00:10:31;;;;;;;3.22;1.00;;;3.00;99.90;;;;;;6212730;23;20019;-79
2022/03/31 00:12:59;;;;;;;5.28;1.48;;;3.00;99.90;;;;;;6187944;23;20042;-80
2022/03/31 00:15:26;;;;;;;7.07;1.15;;;3.00;99.90;;;;;;6187634;23;20039;-79
2022/03/31 00:17:53;;;;;;;3.35;1.13;;;3.00;99.90;;;;;;6186925;23;20048;-80
2022/03/31 00:33:47;;;;;;;3.28;1.00;;;2.90;99.90;;;;;;6214101;23;20048;-79
2022/03/31 00:36:13;;;;;;;2.30;1.35;;;2.90;99.90;;;;;;6212655;23;20023;-80
2022/03/31 00:38:39;;;;;;;4.65;1.10;;;2.80;99.90;;;;;;6214161;23;20060;-82
2022/03/31 00:41:04;;;;;;;3.97;1.60;;;2.90;99.90;;;;;;6191338;23;20009;-82
2022/03/31 00:43:30;;;;;;;3.13;1.40;;;2.80;99.90;;;;;;6191349;23;20013;-81
2022/03/31 00:45:56;;;;;;;4.50;1.20;;;2.90;99.90;;;;;;6190716;23;20016;-81
2022/03/31 00:48:22;;;;;;;4.88;1.15;;;2.80;99.90;;;;;;6190716;23;20020;-81
2022/03/31 00:50:48;;;;;;;3.47;1.25;;;2.90;99.90;;;;;;6215914;23;20028;-81
2022/03/31 00:53:15;;;;;;;4.28;1.10;;;2.80;99.90;;;;;;6216683;23;20012;-81
2022/03/31 00:55:41;;;;;;;1.90;1.30;;;2.90;99.90;;;;;;6217134;23;20012;-82
2022/03/31 00:58:07;;;;;;;2.38;1.30;;;2.80;99.90;;;;;;6219573;23;20091;-82
2022/03/31 01:00:33;;;;;;;2.47;1.42;;;2.80;99.90;;;;;;6218234;23;20013;-82
2022/03/31 01:02:58;;;;;;;2.53;1.27;;;2.80;99.90;;;;;;6217902;23;20015;-81
2022/03/31 01:05:24;;;;;;;3.50;1.63;;;2.80;99.90;;;;;;6219299;23;20200;-81
2022/03/31 01:07:50;;;;;;;2.50;1.55;;;2.80;99.90;;;;;;6221178;23;20099;-81
2022/03/31 01:10:15;;;;;;;2.72;1.58;;;2.90;99.90;;;;;;6218804;23;20039;-82
2022/03/31 01:12:42;;;;;;;4.88;1.38;;;2.90;99.90;;;;;;6219141;23;20013;-82
2022/03/31 01:15:15;;;;;;;5.70;1.55;;;2.90;99.90;;;;;;6192735;23;20054;-81
2022/03/31 01:17:43;;;;;;;1.70;1.05;;;2.90;99.90;;;;;;6220419;23;20019;-81
2022/03/31 01:20:12;;;;;;;7.60;1.58;;;2.90;99.90;;;;;;6193975;23;20373;-81
2022/03/31 01:22:38;;;;;;;3.90;1.55;;;2.90;99.90;;;;;;6216150;23;20008;-80
2022/03/31 01:25:07;;;;;;;4.43;1.42;;;2.90;99.90;;;;;;6213808;23;20027;-80
2022/03/31 01:27:38;;;;;;;6.45;1.38;;;2.80;99.90;;;;;;6188781;23;20022;-79
2022/03/31 01:30:09;;;;;;;5.03;1.20;;;2.70;99.90;;;;;;6213899;23;20345;-81
2022/03/31 01:32:35;;;;;;;2.13;1.40;;;2.60;99.90;;;;;;6213157;23;20009;-79
2022/03/31 01:35:03;;;;;;;1.92;1.73;;;2.70;99.90;;;;;;6212934;23;20023;-79
2022/03/31 01:37:28;;;;;;;4.97;1.20;;;2.60;99.90;;;;;;6212756;23;20350;-79
2022/03/31 01:39:54;;;;;;;3.00;1.15;;;2.60;99.90;;;;;;6187446;23;20013;-79
2022/03/31 01:42:20;;;;;;;3.03;1.35;;;2.60;99.90;;;;;;6188345;23;20449;-79
2022/03/31 01:44:45;;;;;;;2.15;1.30;;;2.60;99.90;;;;;;6212607;23;20060;-79
2022/03/31 01:47:11;;;;;;;4.47;1.30;;;2.60;99.90;;;;;;6212580;23;20024;-79
2022/03/31 01:49:37;;;;;;;3.72;1.30;;;2.60;99.90;;;;;;6212190;23;20059;-79
2022/03/31 01:52:04;;;;;;;2.33;1.02;;;2.60;99.90;;;;;;6213686;23;20091;-79
2022/03/31 01:54:30;;;;;;;8.90;1.38;;;2.60;99.90;;;;;;6212630;23;20598;-79
2022/03/31 01:56:56;;;;;;;3.67;1.20;;;2.60;99.90;;;;;;6212850;23;20016;-79
2022/03/31 01:59:22;;;;;;;4.53;1.40;;;2.60;99.90;;;;;;6214235;23;20016;-79
2022/03/31 02:01:48;;;;;;;3.38;0.95;;;2.50;99.90;;;;;;6213787;23;20012;-79
2022/03/31 02:04:15;;;;;;;3.50;1.13;;;2.60;99.90;;;;;;6213315;23;20012;-80
2022/03/31 02:06:41;;;;;;;1.75;1.10;;;2.60;99.90;;;;;;6213593;23;20127;-79
2022/03/31 02:09:07;;;;;;;3.35;1.20;;;2.60;99.90;;;;;;6216441;23;20020;-82
2022/03/31 02:11:33;;;;;;;4.47;1.25;;;2.50;99.90;;;;;;6217678;23;20465;-82
2022/03/31 02:13:59;;;;;;;3.55;2.40;;;2.60;99.90;;;;;;6226642;23;20021;-80
2022/03/31 02:16:24;;;;;;;5.30;1.27;;;2.60;99.90;;;;;;6230013;23;20504;-79
2022/03/31 02:18:50;;;;;;;3.08;1.65;;;2.60;99.90;;;;;;6217303;23;20013;-80
2022/03/31 02:21:16;;;;;;;2.97;1.35;;;2.60;99.90;;;;;;6211521;23;20449;-80
2022/03/31 02:23:42;;;;;;;1.88;1.13;;;2.60;99.90;;;;;;6186755;23;20048;-80
2022/03/31 02:26:08;;;;;;;2.80;1.20;;;2.70;99.90;;;;;;6211808;23;20158;-79
2022/03/31 02:28:33;;;;;;;5.68;1.30;;;2.70;99.90;;;;;;6211939;23;20044;-79
2022/03/31 02:30:59;;;;;;;1.80;1.33;;;2.70;99.90;;;;;;6211831;23;20044;-80
2022/03/31 02:33:24;;;;;;;2.15;1.15;;;2.60;99.90;;;;;;6186455;23;20016;-80
2022/03/31 02:35:50;;;;;;;3.47;1.40;;;2.60;99.90;;;;;;6211190;23;20024;-79
2022/03/31 02:38:16;;;;;;;4.30;1.67;;;2.60;99.90;;;;;;6212041;23;20406;-79
2022/03/31 02:40:42;;;;;;;6.55;1.42;;;2.60;99.90;;;;;;6211272;23;20020;-79
2022/03/31 02:43:08;;;;;;;3.95;1.20;;;2.60;99.90;;;;;;6211451;23;20035;-79
2022/03/31 02:45:33;;;;;;;6.63;1.55;;;2.60;99.90;;;;;;6211858;23;20020;-80
2022/03/31 02:47:59;;;;;;;3.88;1.60;;;2.60;99.90;;;;;;6211789;23;20013;-79
2022/03/31 02:50:24;;;;;;;3.50;1.23;;;2.60;99.90;;;;;;6211527;23;20012;-79
2022/03/31 02:55:34;;;;;;;6.18;1.38;;;2.60;99.90;;;;;;6211651;23;20027;-79
2022/03/31 02:58:02;;;;;;;4.15;1.25;;;2.60;99.90;;;;;;6211517;23;20013;-79
2022/03/31 03:00:35;;;;;;;4.72;1.30;;;2.70;99.90;;;;;;6211041;23;20020;-79
2022/03/31 03:03:03;;;;;;;2.63;1.13;;;2.60;99.90;;;;;;6212945;23;20013;-79
2022/03/31 03:05:29;;;;;;;5.20;1.27;;;2.60;99.90;;;;;;6211242;23;20028;-80
2022/03/31 03:07:55;;;;;;;2.90;1.48;;;2.60;99.90;;;;;;6211222;23;20015;-79
2022/03/31 03:10:20;;;;;;;4.70;1.27;;;2.60;99.90;;;;;;6211183;23;20083;-80
2022/03/31 03:12:47;;;;;;;3.03;1.77;;;2.60;99.90;;;;;;6211214;23;20059;-79
2022/03/31 03:15:12;;;;;;;3.70;1.40;;;2.60;99.90;;;;;;6185946;23;20066;-80
2022/03/31 03:17:43;;;;;;;6.88;1.55;;;2.60;99.90;;;;;;6210945;23;20088;-79
2022/03/31 03:20:13;;;;;;;3.85;1.70;;;2.70;99.90;;;;;;6185812;23;20130;-79
2022/03/31 03:22:44;;;;;;;4.88;1.42;;;2.60;99.90;;;;;;6211304;23;20013;-79
2022/03/31 03:25:11;;;;;;;4.07;1.88;;;2.60;99.90;;;;;;6211520;23;20013;-80
2022/03/31 03:27:37;;;;;;;4.53;1.73;;;2.60;99.90;;;;;;6211158;23;20016;-79
2022/03/31 03:30:03;;;;;;;5.47;2.05;;;2.60;99.90;;;;;;6210840;23;20012;-79
2022/03/31 03:32:29;;;;;;;2.70;1.42;;;2.60;99.90;;;;;;6211152;23;20071;-79
2022/03/31 03:34:54;;;;;;;8.10;2.35;;;2.60;99.90;;;;;;6211163;23;20013;-79
2022/03/31 03:37:20;;;;;;;3.63;2.10;;;2.60;99.90;;;;;;6211146;23;20024;-79
2022/03/31 03:39:45;;;;;;;6.95;2.25;;;2.60;99.90;;;;;;6211281;23;20016;-79
2022/03/31 03:42:11;;;;;;;4.72;2.08;;;2.60;99.90;;;;;;6185915;23;20162;-78
2022/03/31 03:44:36;;;;;;;6.47;1.95;;;2.60;99.90;;;;;;6211594;23;20032;-79
2022/03/31 03:47:02;;;;;;;4.20;2.40;;;2.70;99.90;;;;;;6211065;23;20099;-79
2022/03/31 03:49:28;;;;;;;8.40;2.75;;;2.70;99.90;;;;;;6210850;23;20028;-79
2022/03/31 03:51:53;;;;;;;5.07;2.85;;;2.70;99.90;;;;;;6211617;23;20127;-80
2022/03/31 03:54:19;;;;;;;4.60;2.60;;;2.70;99.90;;;;;;6211540;23;20016;-79
2022/03/31 03:56:45;;;;;;;3.95;2.58;;;2.70;99.90;;;;;;6185958;23;20071;-79
2022/03/31 03:59:10;;;;;;;5.07;2.67;;;2.60;99.90;;;;;;6211579;23;20020;-80
2022/03/31 04:01:36;;;;;;;6.30;2.70;;;2.70;99.90;;;;;;6210856;23;20004;-79
2022/03/31 04:04:02;;;;;;;5.88;3.05;;;2.70;99.90;;;;;;6210916;23;20023;-79
2022/03/31 04:06:27;;;;;;;6.65;2.90;;;2.70;99.90;;;;;;6211098;23;20028;-80
2022/03/31 04:08:53;;;;;;;6.57;3.28;;;2.70;99.90;;;;;;6211393;23;20494;-78
2022/03/31 04:11:18;;;;;;;4.72;2.90;;;2.70;99.90;;;;;;6210440;23;20357;-79
2022/03/31 04:13:46;;;;;;;10.13;3.70;;;2.70;99.90;;;;;;6210922;23;20027;-80
2022/03/31 04:16:11;;;;;;;8.52;3.88;;;2.70;99.90;;;;;;6210864;23;20353;-79
2022/03/31 04:18:38;;;;;;;7.75;3.38;;;2.70;99.90;;;;;;6211091;23;20016;-79
2022/03/31 04:21:04;;;;;;;8.13;3.40;;;2.70;99.90;;;;;;6185861;23;20097;-80
2022/03/31 04:23:30;;;;;;;8.80;4.05;;;2.70;99.90;;;;;;6210917;23;20004;-79
2022/03/31 04:25:55;;;;;;;8.88;4.05;;;2.60;99.90;;;;;;6211119;23;20012;-79
2022/03/31 04:28:21;;;;;;;8.00;5.13;;;2.70;99.90;;;;;;6210857;23;20028;-80
2022/03/31 04:30:46;;;;;;;9.57;4.32;;;2.60;99.90;;;;;;6212268;23;20048;-80
2022/03/31 04:33:12;;;;;;;9.80;4.60;;;2.70;99.90;;;;;;6187274;23;20016;-79
2022/03/31 04:35:38;;;;;;;8.00;4.55;;;2.70;99.90;;;;;;6212056;23;20171;-79
2022/03/31 04:38:04;;;;;;;6.60;4.47;;;2.60;99.90;;;;;;6213327;23;20433;-79
2022/03/31 04:40:30;;;;;;;7.90;4.82;;;2.70;99.90;;;;;;6212335;23;20036;-79
2022/03/31 04:42:55;;;;;;;11.30;5.80;;;2.70;99.90;;;;;;6212872;23;20016;-80
2022/03/31 04:45:21;;;;;;;9.27;6.07;;;2.70;99.90;;;;;;6187785;23;20495;-79
2022/03/31 04:47:46;;;;;;;9.77;6.38;;;2.70;99.90;;;;;;6212613;23;20020;-79
2022/03/31 04:50:13;;;;;;;11.13;5.15;;;2.70;99.90;;;;;;6213930;23;20113;-79
2022/03/31 04:52:39;;;;;;;9.63;5.82;;;2.70;99.90;;;;;;6212879;23;20027;-79
2022/03/31 04:55:05;;;;;;;12.63;6.50;;;2.70;99.90;;;;;;6218201;23;20009;-79
2022/03/31 04:57:31;;;;;;;8.90;5.80;;;2.70;99.90;;;;;;6230959;23;20012;-79
2022/03/31 04:59:57;;;;;;;8.75;5.75;;;2.70;99.90;;;;;;6190921;23;20084;-79
2022/03/31 05:02:22;;;;;;;9.35;6.05;;;2.70;99.90;;;;;;6212385;23;20346;-79
2022/03/31 05:04:48;;;;;;;30.85;16.42;;;2.70;99.90;;;;;;6212769;23;20016;-80
2022/03/31 05:07:14;;;;;;;29.48;15.90;;;2.70;99.90;;;;;;6212550;23;20016;-79
2022/03/31 05:09:41;;;;;;;11.70;7.18;;;2.70;99.90;;;;;;6213518;23;20012;-79
2022/03/31 05:12:07;;;;;;;15.70;8.10;;;2.70;99.90;;;;;;6214390;23;20488;-79
2022/03/31 05:14:33;;;;;;;10.13;6.32;;;2.70;99.90;;;;;;6213796;23;20465;-79
2022/03/31 05:16:59;;;;;;;9.07;5.78;;;2.70;99.90;;;;;;6214855;23;20016;-79
2022/03/31 05:19:24;;;;;;;11.18;5.60;;;2.70;99.90;;;;;;6216389;23;20019;-79
2022/03/31 05:21:50;;;;;;;8.93;5.22;;;2.70;99.90;;;;;;6189439;23;20017;-79
2022/03/31 05:24:16;;;;;;;7.05;4.88;;;2.70;99.90;;;;;;6214482;23;20106;-79
2022/03/31 05:26:42;;;;;;;8.20;4.75;;;2.80;99.90;;;;;;6189114;23;20341;-79
2022/03/31 05:29:08;;;;;;;8.00;5.25;;;2.70;99.90;;;;;;6215009;23;20439;-79
2022/03/31 05:31:33;;;;;;;6.40;4.30;;;2.70;99.90;;;;;;6187812;23;20066;-79
2022/03/31 05:33:59;;;;;;;7.40;4.90;;;2.70;99.90;;;;;;6211729;23;20024;-79
2022/03/31 05:36:24;;;;;;;8.23;4.72;;;2.70;99.90;;;;;;6211588;23;20362;-79
2022/03/31 05:38:50;;;;;;;7.63;4.82;;;2.70;99.90;;;;;;6185854;23;20342;-79
2022/03/31 05:41:16;;;;;;;7.75;5.13;;;2.70;99.90;;;;;;6186561;23;20103;-79
2022/03/31 05:43:41;;;;;;;67.00;34.67;;;2.70;99.90;;;;;;6187519;23;20027;-79
2022/03/31 05:46:07;;;;;;;12.80;6.47;;;2.70;99.90;;;;;;6213566;23;20017;-78
2022/03/31 05:48:33;;;;;;;9.32;5.72;;;2.80;99.90;;;;;;6213210;23;20020;-78
2022/03/31 05:50:58;;;;;;;7.90;5.45;;;2.80;99.90;;;;;;6187542;23;20598;-78
2022/03/31 05:53:24;;;;;;;9.95;4.82;;;2.80;99.90;;;;;;6187792;23;20012;-78
2022/03/31 05:55:49;;;;;;;6.75;4.18;;;2.80;99.90;;;;;;6187960;23;20048;-78
2022/03/31 05:58:16;;;;;;;8.13;4.70;;;2.80;99.90;;;;;;6188150;23;20461;-79
2022/03/31 06:00:42;;;;;;;6.30;4.13;;;2.80;99.90;;;;;;6188956;23;20013;-79
2022/03/31 06:03:07;;;;;;;5.40;3.75;;;2.80;99.90;;;;;;6214168;23;20319;-79
2022/03/31 06:05:33;;;;;;;7.07;4.30;;;2.80;99.90;;;;;;6215897;23;20012;-79
2022/03/31 06:07:58;;;;;;;5.68;4.53;;;2.90;99.90;;;;;;6215878;23;20050;-79
2022/03/31 06:10:24;;;;;;;5.18;3.92;;;2.90;99.90;;;;;;6213030;23;20031;-79
2022/03/31 06:12:50;;;;;;;6.40;4.43;;;2.90;99.90;;;;;;6215138;23;20020;-78
2022/03/31 06:15:17;;;;;;;6.10;3.88;;;2.90;99.90;;;;;;6214758;23;20013;-78
2022/03/31 06:17:44;;;;;;;7.50;4.18;;;2.90;99.90;;;;;;6212420;23;20013;-79
2022/03/31 06:20:11;;;;;;;8.23;4.63;;;2.90;99.90;;;;;;6214171;23;20008;-78
2022/03/31 06:22:37;;;;;;;6.28;4.50;;;2.90;99.90;;;;;;6214621;23;20019;-79
2022/03/31 06:25:04;;;;;;;6.85;4.75;;;3.10;99.90;;;;;;6214061;23;20020;-79
2022/03/31 06:27:29;;;;;;;17.50;10.95;;;3.00;99.90;;;;;;6191311;23;20016;-78
2022/03/31 06:29:56;;;;;;;13.30;7.72;;;3.00;99.90;;;;;;6216858;23;20020;-78
2022/03/31 06:32:21;;;;;;;7.68;5.22;;;3.00;99.90;;;;;;6215772;23;20013;-79
2022/03/31 06:34:47;;;;;;;7.10;4.90;;;3.10;99.90;;;;;;6214908;23;20066;-79
2022/03/31 06:37:13;;;;;;;9.55;6.15;;;3.20;99.90;;;;;;6216993;23;20017;-78
2022/03/31 06:39:39;;;;;;;6.10;4.65;;;3.10;99.90;;;;;;6216224;23;20020;-78
2022/03/31 06:42:05;;;;;;;6.40;4.18;;;3.10;99.90;;;;;;6214718;23;20008;-79
2022/03/31 06:44:31;;;;;;;6.65;4.32;;;3.10;99.90;;;;;;6190929;23;20092;-79
2022/03/31 06:46:57;;;;;;;5.65;3.78;;;3.10;99.90;;;;;;6190034;23;20043;-78
2022/03/31 06:49:23;;;;;;;5.05;3.55;;;3.10;99.90;;;;;;6190147;23;20095;-79
2022/03/31 06:51:50;;;;;;;6.10;4.45;;;3.10;99.90;;;;;;6188479;23;20019;-78
2022/03/31 06:54:15;;;;;;;7.55;4.53;;;3.10;99.90;;;;;;6215092;23;20110;-79
2022/03/31 06:56:41;;;;;;;6.60;4.50;;;3.10;99.90;;;;;;6215689;23;20068;-79
2022/03/31 06:59:06;;;;;;;5.65;4.20;;;3.10;99.90;;;;;;6214434;23;20020;-79
2022/03/31 07:01:32;;;;;;;6.22;3.80;;;3.20;99.90;;;;;;6213389;23;20114;-79
2022/03/31 07:03:58;;;;;;;5.55;4.45;;;3.20;99.90;;;;;;6215460;23;20008;-79
2022/03/31 07:06:24;;;;;;;5.28;4.18;;;3.20;99.90;;;;;;6214535;23;20026;-79
2022/03/31 07:08:49;;;;;;;7.20;4.68;;;3.20;99.90;;;;;;6188184;23;20024;-78
2022/03/31 07:11:16;;;;;;;6.93;4.65;;;3.30;99.90;;;;;;6213079;23;20020;-79
2022/03/31 07:13:43;;;;;;;7.18;4.68;;;3.30;99.90;;;;;;6216449;23;20462;-79
2022/03/31 07:16:09;;;;;;;6.32;4.70;;;3.30;99.90;;;;;;6215030;23;20023;-79
2022/03/31 07:18:34;;;;;;;7.30;4.70;;;3.30;99.90;;;;;;6213194;23;20016;-79
2022/03/31 07:21:00;;;;;;;7.47;4.60;;;3.30;99.90;;;;;;6214800;23;20024;-79
2022/03/31 07:23:26;;;;;;;5.85;4.40;;;3.30;99.90;;;;;;6190900;23;20465;-79
2022/03/31 07:25:53;;;;;;;6.20;4.30;;;3.30;99.90;;;;;;6216019;23;20182;-79
2022/03/31 07:28:20;;;;;;;5.63;4.07;;;3.40;99.90;;;;;;6216770;23;20469;-79
2022/03/31 07:30:45;;;;;;;5.18;4.32;;;3.40;99.90;;;;;;6213260;23;20016;-79
2022/03/31 07:33:11;;;;;;;7.60;4.40;;;3.40;99.90;;;;;;6217990;23;20017;-79
2022/03/31 07:35:37;;;;;;;5.43;4.30;;;3.40;99.90;;;;;;6224118;23;20025;-77
2022/03/31 07:38:07;;;;;;;6.53;4.05;;;3.40;99.90;;;;;;6221078;23;20023;-78
2022/03/31 07:40:33;;;;;;;5.68;3.95;;;3.40;99.90;;;;;;6214091;23;20094;-78
2022/03/31 07:43:01;;;;;;;127.70;53.55;;;3.40;99.90;;;;;;6212101;23;20019;-78
2022/03/31 07:45:28;;;;;;;17.25;9.35;;;3.50;99.90;;;;;;6214425;23;20015;-78
2022/03/31 07:47:54;;;;;;;7.40;5.30;;;3.40;99.90;;;;;;6214022;23;20009;-78
2022/03/31 07:50:21;;;;;;;8.38;5.45;;;3.50;99.90;;;;;;6214872;23;20012;-78
2022/03/31 07:52:48;;;;;;;7.78;4.78;;;3.40;99.90;;;;;;6213325;23;20083;-78
2022/03/31 07:55:16;;;;;;;7.20;4.72;;;3.30;99.90;;;;;;6213793;23;20456;-78
2022/03/31 07:57:43;;;;;;;7.57;4.63;;;3.40;99.90;;;;;;6213753;23;20012;-78
2022/03/31 08:00:11;;;;;;;10.88;5.40;;;3.40;99.90;;;;;;6211901;23;20019;-79
2022/03/31 08:02:39;;;;;;;9.00;5.47;;;3.30;99.90;;;;;;6214740;23;20009;-78
2022/03/31 08:05:05;;;;;;;7.03;5.13;;;3.20;99.90;;;;;;6215009;23;20008;-78
2022/03/31 08:07:30;;;;;;;8.57;5.65;;;3.30;99.90;;;;;;6217329;23;20018;-78
2022/03/31 08:09:56;;;;;;;7.15;4.78;;;3.40;99.90;;;;;;6215275;23;20017;-78
2022/03/31 08:12:21;;;;;;;6.97;5.32;;;3.30;99.90;;;;;;6190580;23;20048;-78
2022/03/31 08:14:47;;;;;;;72.03;38.22;;;3.30;99.90;;;;;;6194004;23;20021;-79
2022/03/31 08:17:13;;;;;;;9.30;5.70;;;3.40;99.90;;;;;;6192921;23;20019;-78
2022/03/31 08:19:39;;;;;;;8.85;5.55;;;3.40;99.90;;;;;;6220426;23;20016;-73
2022/03/31 08:22:05;;;;;;;8.82;5.53;;;3.40;99.90;;;;;;6218934;23;20009;-79
2022/03/31 08:24:31;;;;;;;7.28;5.43;;;3.40;99.90;;;;;;6217796;23;20040;-79
2022/03/31 08:27:00;;;;;;;8.15;5.60;;;3.50;99.90;;;;;;6220686;23;20028;-78
2022/03/31 08:29:25;;;;;;;9.63;6.47;;;3.50;99.90;;;;;;6222217;23;20446;-79
2022/03/31 08:31:52;;;;;;;7.80;5.57;;;3.50;99.90;;;;;;6221100;23;20023;-79
2022/03/31 08:34:17;;;;;;;8.40;6.15;;;3.50;99.90;;;;;;6223550;23;20012;-79
2022/03/31 08:36:43;;;;;;;10.35;6.28;;;3.40;99.90;;;;;;6221188;23;20017;-78
2022/03/31 08:39:09;;;;;;;7.63;4.53;;;3.40;99.90;;;;;;6192766;23;20012;-78
2022/03/31 08:41:34;;;;;;;7.28;5.25;;;3.40;99.90;;;;;;6192334;23;20064;-78
2022/03/31 08:44:01;;;;;;;9.50;5.90;;;3.40;99.90;;;;;;6216838;23;20040;-78
2022/03/31 08:46:31;;;;;;;7.80;5.63;;;3.40;99.90;;;;;;6214484;23;20008;-78
2022/03/31 08:48:57;;;;;;;9.15;5.80;;;3.40;99.90;;;;;;6214714;23;20013;-78
2022/03/31 08:51:23;;;;;;;7.78;5.75;;;3.40;99.90;;;;;;6189110;23;20016;-78
2022/03/31 08:53:49;;;;;;;8.30;5.68;;;3.40;99.90;;;;;;6214530;23;20024;-78
2022/03/31 08:56:15;;;;;;;7.80;5.32;;;3.40;99.90;;;;;;6214115;23;20016;-78
2022/03/31 08:58:45;;;;;;;7.68;4.63;;;3.50;99.90;;;;;;6189319;23;20012;-78
2022/03/31 09:01:12;;;;;;;7.28;4.72;;;3.40;99.90;;;;;;6189613;23;20067;-79
2022/03/31 09:03:39;;;;;;;9.00;5.70;;;3.30;99.90;;;;;;6214640;23;20083;-78
2022/03/31 09:06:07;;;;;;;8.57;5.97;;;3.20;99.90;;;;;;6214138;23;20402;-78
2022/03/31 09:08:34;;;;;;;8.80;5.57;;;3.20;99.90;;;;;;6214060;23;20048;-78
2022/03/31 09:11:00;;;;;;;6.88;4.38;;;3.20;99.90;;;;;;6214857;23;20020;-78
2022/03/31 09:13:38;;;;;;;7.80;5.85;;;3.20;99.90;;;;;;6189871;23;20016;-78
2022/03/31 09:16:06;;;;;;;8.55;5.97;;;3.20;99.90;;;;;;6213132;23;20013;-77
2022/03/31 09:18:36;;;;;;;8.15;5.32;;;3.20;99.90;;;;;;6213189;23;20018;-78
2022/03/31 09:21:05;;;;;;;40.70;19.85;;;3.20;99.90;;;;;;6187942;23;20016;-77
2022/03/31 09:23:41;;;;;;;14.18;8.20;;;3.20;99.90;;;;;;6212826;23;20324;-77
2022/03/31 09:26:10;;;;;;;11.20;6.95;;;3.20;99.90;;;;;;6213166;23;20021;-78
2022/03/31 09:28:39;;;;;;;11.07;6.82;;;3.30;99.90;;;;;;6187942;23;20012;-77
2022/03/31 09:31:08;;;;;;;9.70;6.50;;;3.30;99.90;;;;;;6187268;23;20044;-77
2022/03/31 09:33:48;;;;;;;10.45;6.07;;;3.30;99.90;;;;;;6212493;23;20026;-77
2022/03/31 09:36:21;;;;;;;7.00;5.50;;;3.40;99.90;;;;;;6214243;23;20027;-78
2022/03/31 09:39:02;;;;;;;7.82;5.63;;;3.40;99.90;;;;;;6187851;23;20004;-78
2022/03/31 09:41:37;;;;;;;9.88;5.43;;;3.40;99.90;;;;;;6212532;23;20023;-78
2022/03/31 09:44:08;;;;;;;8.50;5.43;;;3.40;99.90;;;;;;6213960;23;20047;-78
2022/03/31 09:46:38;;;;;;;11.20;6.90;;;3.50;99.90;;;;;;6190263;23;20016;-78
2022/03/31 09:49:26;;;;;;;11.52;6.75;;;3.60;99.90;;;;;;6190333;23;20008;-76
2022/03/31 09:51:54;;;;;;;9.95;5.55;;;3.60;99.90;;;;;;6188098;23;20018;-78
2022/03/31 09:54:26;;;;;;;8.55;5.85;;;3.60;99.90;;;;;;6189153;23;20016;-78
2022/03/31 09:56:52;;;;;;;6.93;4.43;;;3.60;99.90;;;;;;6191989;23;20020;-78
2022/03/31 09:59:18;;;;;;;5.63;4.18;;;3.70;99.90;;;;;;6217199;23;20020;-78
2022/03/31 10:01:48;;;;;;;5.97;4.13;;;3.70;99.90;;;;;;6188577;23;20013;-78
2022/03/31 10:04:14;;;;;;;5.63;3.58;;;3.80;99.90;;;;;;6214414;23;20012;-79
2022/03/31 10:06:41;;;;;;;6.90;4.68;;;3.70;99.90;;;;;;6189713;23;20020;-78
2022/03/31 10:09:10;;;;;;;4.25;2.67;;;3.70;99.90;;;;;;6213859;23;20044;-79
2022/03/31 10:11:46;;;;;;;7.45;3.90;;;3.70;99.90;;;;;;6188446;23;20012;-79
2022/03/31 10:14:56;;;;;;;5.72;3.65;;;3.70;99.90;;;;;;6194583;23;20357;-79
2022/03/31 10:17:27;;;;;;;5.60;3.63;;;3.70;99.90;;;;;;6182099;23;20401;-78
2022/03/31 10:19:53;;;;;;;4.93;3.42;;;3.70;99.90;;;;;;6222099;23;20434;-78
2022/03/31 10:25:11;;;;;;;2.90;2.05;;;3.50;99.90;;;;;;6213791;23;20413;-78
2022/03/31 10:27:40;;;;;;;3.22;1.90;;;3.50;99.90;;;;;;6213459;23;20508;-78
2022/03/31 10:30:13;;;;;;;2.78;2.13;;;3.40;99.90;;;;;;6212065;23;20013;-78
2022/03/31 10:33:03;;;;;;;8.43;5.97;;;3.30;99.90;;;;;;6211958;23;20452;-78
2022/03/31 10:35:30;;;;;;;2.83;1.80;;;3.30;99.90;;;;;;6212297;23;20459;-78
2022/03/31 10:37:57;;;;;;;3.15;1.90;;;3.20;99.90;;;;;;6212136;23;20021;-78
2022/03/31 10:40:35;;;;;;;1.55;1.45;;;3.20;99.90;;;;;;6211873;23;20012;-79
2022/03/31 10:43:01;;;;;;;2.85;1.65;;;3.00;99.90;;;;;;6212340;23;20454;-78
2022/03/31 10:45:35;;;;;;;2.08;1.80;;;2.90;99.90;;;;;;6212005;23;20088;-78
2022/03/31 10:48:15;;;;;;;3.58;1.52;;;2.90;99.90;;;;;;6186911;23;20048;-78
2022/03/31 10:50:41;;;;;;;3.08;1.70;;;2.90;99.90;;;;;;6211897;23;20549;-78
2022/03/31 10:53:06;;;;;;;2.92;1.92;;;2.90;99.90;;;;;;6212027;23;20040;-78
2022/03/31 10:55:36;;;;;;;1.50;1.40;;;2.90;99.90;;;;;;6186303;23;20091;-78
2022/03/31 10:58:04;;;;;;;2.85;1.80;;;2.90;99.90;;;;;;6212227;23;20021;-78
2022/03/31 11:00:29;;;;;;;2.53;1.50;;;2.80;99.90;;;;;;6211722;23;20013;-79
2022/03/31 11:02:55;;;;;;;2.75;1.95;;;2.80;99.90;;;;;;6186820;23;20207;-78
2022/03/31 11:05:25;;;;;;;2.67;1.73;;;2.70;99.90;;;;;;6214245;23;20449;-78
2022/03/31 11:08:01;;;;;;;2.50;2.08;;;2.80;99.90;;;;;;6212113;23;20044;-78
2022/03/31 11:10:27;;;;;;;3.30;1.55;;;2.80;99.90;;;;;;6186531;23;20013;-79
2022/03/31 11:12:52;;;;;;;3.40;2.40;;;2.70;99.90;;;;;;6187445;23;20018;-79
2022/03/31 11:15:18;;;;;;;3.40;2.20;;;2.60;99.90;;;;;;6186308;23;20013;-79
2022/03/31 11:17:47;;;;;;;2.90;2.08;;;2.60;99.90;;;;;;6211390;23;20020;-78
2022/03/31 11:20:21;;;;;;;2.90;2.20;;;2.60;99.90;;;;;;6211054;23;20021;-78
2022/03/31 11:22:54;;;;;;;2.63;1.95;;;2.60;99.90;;;;;;6211642;23;20016;-79
2022/03/31 11:25:19;;;;;;;;;;;2.60;99.90;;;;;;6211878;23;20345;-78
2022/03/31 11:27:46;;;;;;;2.70;1.92;;;2.60;99.90;;;;;;6211828;23;19990;-79
2022/03/31 11:30:18;;;;;;;2.65;2.10;;;2.50;99.90;;;;;;6212902;23;20126;-78
2022/03/31 11:32:44;;;;;;;4.63;2.30;;;2.50;99.90;;;;;;6186900;23;20008;-78
2022/03/31 11:35:17;;;;;;;2.83;2.03;;;2.40;99.90;;;;;;6211112;23;20040;-78
2022/03/31 11:37:57;;;;;;;3.20;2.10;;;2.50;99.90;;;;;;6211158;23;20054;-79
2022/03/31 11:40:27;;;;;;;4.20;2.70;;;2.40;99.90;;;;;;6212626;23;20338;-78
2022/03/31 11:42:56;;;;;;;2.65;2.08;;;2.40;99.90;;;;;;6211283;23;20036;-78
2022/03/31 11:45:43;;;;;;;3.50;2.60;;;2.30;99.90;;;;;;6210974;23;20013;-78
2022/03/31 11:48:20;;;;;;;3.70;2.55;;;2.30;99.90;;;;;;6214536;23;20020;-79
2022/03/31 11:50:56;;;;;;;2.33;1.90;;;2.30;99.90;;;;;;6213872;23;20017;-79
2022/03/31 11:53:25;;;;;;;3.22;2.22;;;2.20;99.90;;;;;;6213167;23;20556;-79
2022/03/31 11:55:58;;;;;;;3.17;2.40;;;2.20;99.90;;;;;;6213461;23;20047;-80
2022/03/31 11:58:23;;;;;;;4.32;2.50;;;2.20;99.90;;;;;;6214390;23;20016;-77
2022/03/31 12:00:50;;;;;;;2.75;2.20;;;2.10;99.90;;;;;;6214767;23;20021;-80
2022/03/31 12:03:17;;;;;;;3.28;2.20;;;2.10;99.90;;;;;;6214667;23;20063;-80
2022/03/31 12:05:53;;;;;;;3.63;2.55;;;2.10;99.90;;;;;;6216759;23;20078;-80
2022/03/31 12:08:18;;;;;;;3.13;2.20;;;2.10;99.90;;;;;;6215160;23;20036;-80
2022/03/31 12:10:44;;;;;;;3.42;2.28;;;2.10;99.90;;;;;;6214927;23;20025;-79
2022/03/31 12:13:10;;;;;;;3.45;2.38;;;2.10;99.90;;;;;;6215923;23;20024;-80
2022/03/31 12:15:35;;;;;;;4.50;2.65;;;2.10;99.90;;;;;;6214012;23;20016;-81
2022/03/31 12:18:04;;;;;;;3.53;2.70;;;2.10;99.90;;;;;;6215429;23;20088;-80
2022/03/31 12:20:31;;;;;;;4.13;2.85;;;2.10;99.90;;;;;;6214420;23;20062;-81
2022/03/31 12:22:57;;;;;;;3.85;2.63;;;2.10;99.90;;;;;;6189905;23;20048;-80
2022/03/31 12:25:34;;;;;;;4.32;2.83;;;2.10;99.90;;;;;;6215807;23;20023;-80
2022/03/31 12:28:03;;;;;;;3.75;2.63;;;2.20;99.90;;;;;;6214017;23;20350;-80
2022/03/31 12:30:42;;;;;;;3.97;2.83;;;2.20;99.90;;;;;;6213320;23;20008;-80
2022/03/31 12:33:19;;;;;;;4.82;2.90;;;2.20;99.90;;;;;;6214174;23;20032;-81
2022/03/31 12:36:14;;;;;;;5.20;3.50;;;2.30;99.90;;;;;;6213565;23;20024;-80
2022/03/31 12:38:43;;;;;;;4.68;3.72;;;2.30;99.90;;;;;;6201124;23;20354;-80
2022/03/31 12:41:25;;;;;;;5.03;3.50;;;2.30;99.90;;;;;;6213904;23;20008;-80
2022/03/31 12:44:05;;;;;;;5.13;3.35;;;2.20;99.90;;;;;;6214013;23;20040;-80
2022/03/31 12:46:38;;;;;;;5.90;3.90;;;2.30;99.90;;;;;;6214343;23;20350;-80
2022/03/31 12:49:13;;;;;;;6.55;4.05;;;2.30;99.90;;;;;;6189509;23;20036;-80
2022/03/31 12:51:49;;;;;;;5.85;4.20;;;2.30;99.90;;;;;;6216503;23;20158;-80
2022/03/31 12:54:27;;;;;;;6.00;4.55;;;2.30;99.90;;;;;;6219444;23;20009;-81
2022/03/31 12:57:14;;;;;;;7.22;4.35;;;2.40;99.90;;;;;;6229663;23;20457;-81
2022/03/31 12:59:41;;;;;;;6.97;4.30;;;2.40;99.90;;;;;;6215967;23;20012;-80
2022/03/31 13:02:12;;;;;;;7.45;4.57;;;2.40;99.90;;;;;;6214429;23;20088;-80
2022/03/31 13:04:42;;;;;;;7.75;5.05;;;2.50;99.90;;;;;;6216234;23;20017;-80
2022/03/31 13:07:11;;;;;;;9.73;5.82;;;2.50;99.90;;;;;;6216587;23;20013;-80
2022/03/31 13:09:37;;;;;;;9.43;5.88;;;2.50;99.90;;;;;;6216437;23;20331;-80
2022/03/31 13:12:09;;;;;;;10.48;6.40;;;2.60;99.90;;;;;;6215483;23;20012;-81
2022/03/31 13:14:36;;;;;;;11.05;6.88;;;2.60;99.90;;;;;;6215655;23;20345;-80
2022/03/31 13:17:01;;;;;;;12.50;7.40;;;2.70;99.90;;;;;;6190725;23;20016;-80